Time;durP1;ratioP1;P1;durP2;ratioP2;P2;SDS_P1;SDS_P2;PMS_P1;PMS_P2;Temp;Humidity;BMP_temperature;BMP_pressure;BME280_temperature;BME280_humidity;BME280_pressure;Samples;Min_cycle;Max_cycle;Signal;HPM_P1;HPM_P2
2023/01/16 00:05:20;;;;;;;0.40;0.32;;;;;;;16.20;69.35;99189.81;20219818;29;20488;-92
2023/01/16 00:15:21;;;;;;;0.43;0.30;;;;;;;16.26;69.28;99190.97;20244964;29;20384;-91
2023/01/16 00:25:25;;;;;;;0.30;0.30;;;;;;;16.26;69.23;99169.50;20219052;29;20545;-93
2023/01/16 00:35:27;;;;;;;0.30;0.30;;;;;;;16.20;69.21;99148.69;20218524;29;20048;-92
2023/01/16 00:45:29;;;;;;;0.28;0.28;;;;;;;16.00;69.08;99111.47;20256003;29;20068;-91
2023/01/16 00:55:33;;;;;;;0.47;0.20;;;;;;;16.27;69.22;99135.44;20236111;29;20062;-92
2023/01/16 01:05:38;;;;;;;0.38;0.30;;;;;;;16.26;69.26;99105.06;20259359;29;20066;-91
2023/01/16 01:15:39;;;;;;;0.55;0.55;;;;;;;16.26;69.22;99097.00;20229637;29;20103;-94
2023/01/16 01:25:48;;;;;;;0.20;0.20;;;;;;;16.26;69.22;99072.84;20227328;29;20052;-93
2023/01/16 01:35:50;;;;;;;0.52;0.20;;;;;;;16.28;69.18;99061.94;20228316;29;20406;-93
2023/01/16 01:45:53;;;;;;;0.20;0.20;;;;;;;16.26;69.17;99040.63;20243281;29;20579;-93
2023/01/16 01:55:59;;;;;;;0.20;0.20;;;;;;;16.27;69.28;99031.56;20224921;29;20116;-93
2023/01/16 02:06:06;;;;;;;0.25;0.25;;;;;;;16.27;69.11;99018.13;20242087;29;20104;-92
2023/01/16 02:26:53;;;;;;;0.40;0.20;;;;;;;16.27;69.19;98980.53;20240268;29;20076;-92
2023/01/16 02:37:18;;;;;;;0.15;0.15;;;;;;;16.21;69.13;98949.00;20238755;29;20539;-92
2023/01/16 02:47:36;;;;;;;0.52;0.30;;;;;;;16.19;69.01;98922.34;20238918;29;20384;-93
2023/01/16 02:57:47;;;;;;;0.47;0.30;;;;;;;15.99;69.25;98872.75;20222547;29;20061;-93
2023/01/16 03:08:10;;;;;;;0.30;0.20;;;;;;;16.28;69.20;98887.41;20219965;29;20048;-92
2023/01/16 03:18:30;;;;;;;0.40;0.30;;;;;;;16.27;69.26;98867.75;20219602;29;20105;-92
2023/01/16 03:28:36;;;;;;;0.20;0.20;;;;;;;16.28;69.21;98882.03;20214045;29;20080;-92
2023/01/16 03:38:39;;;;;;;0.20;0.20;;;;;;;16.09;69.46;98822.38;20235679;29;20063;-91
2023/01/16 03:48:47;;;;;;;0.40;0.30;;;;;;;16.27;69.12;98838.22;20218886;29;20100;-92
2023/01/16 03:58:49;;;;;;;0.10;0.10;;;;;;;16.27;69.17;98826.66;20219506;29;20049;-92
2023/01/16 04:08:52;;;;;;;0.68;0.35;;;;;;;16.28;69.19;98822.97;20217838;29;20045;-93
2023/01/16 04:18:55;;;;;;;0.65;0.30;;;;;;;16.09;69.14;98784.81;20242300;29;20048;-92
2023/01/16 04:28:57;;;;;;;0.30;0.20;;;;;;;16.07;69.35;98774.25;20232416;29;20044;-93
2023/01/16 04:38:58;;;;;;;0.45;0.30;;;;;;;16.27;69.26;98797.94;20248327;29;20044;-92
2023/01/16 04:49:03;;;;;;;0.20;0.20;;;;;;;16.23;69.19;98756.38;20247482;29;20084;-93
2023/01/16 04:59:05;;;;;;;0.20;0.20;;;;;;;16.27;69.28;98738.88;20230083;29;20052;-92
2023/01/16 05:09:09;;;;;;;0.43;0.30;;;;;;;16.18;69.24;98688.94;20246460;29;20049;-93
2023/01/16 05:19:13;;;;;;;0.35;0.20;;;;;;;16.27;69.23;98684.38;20228141;29;20104;-93
2023/01/16 05:29:14;;;;;;;0.20;0.20;;;;;;;16.28;68.97;98653.81;20227586;29;20044;-93
2023/01/16 05:39:16;;;;;;;0.28;0.20;;;;;;;16.26;69.30;98642.44;20224662;29;20455;-93
2023/01/16 05:49:20;;;;;;;0.20;0.20;;;;;;;15.90;69.04;98592.88;20168949;29;20448;-91
2023/01/16 05:59:27;;;;;;;0.20;0.20;;;;;;;16.27;69.17;98626.13;20205693;29;20056;-94
2023/01/16 06:09:28;;;;;;;0.20;0.20;;;;;;;16.26;69.26;98605.66;20208785;29;20061;-92
2023/01/16 06:19:30;;;;;;;0.20;0.20;;;;;;;16.27;69.26;98583.16;20232787;29;20060;-93
2023/01/16 06:29:32;;;;;;;0.88;0.20;;;;;;;16.27;69.35;98563.56;20206330;29;20052;-94
2023/01/16 06:39:33;;;;;;;0.20;0.20;;;;;;;16.25;69.59;98542.25;20212504;29;20055;-92
2023/01/16 06:49:35;;;;;;;0.98;0.20;;;;;;;16.02;69.44;98480.56;20232132;29;20408;-92
2023/01/16 06:59:36;;;;;;;0.20;0.17;;;;;;;16.07;69.47;98462.91;20239466;29;20052;-91
2023/01/16 07:09:38;;;;;;;0.20;0.20;;;;;;;16.26;69.40;98479.47;20239187;29;20080;-91
2023/01/16 07:30:00;;;;;;;0.20;0.20;;;;;;;16.16;69.62;98401.06;20252510;29;20570;-91
2023/01/16 07:40:01;;;;;;;0.68;0.30;;;;;;;16.25;69.56;98394.59;20232719;29;20427;-93
2023/01/16 07:50:04;;;;;;;0.50;0.20;;;;;;;16.25;69.76;98394.59;20198458;29;20139;-95
2023/01/16 08:00:07;;;;;;;0.20;0.20;;;;;;;16.26;69.77;98382.81;20213242;29;20060;-93
2023/01/16 08:10:12;;;;;;;0.40;0.25;;;;;;;16.26;69.81;98372.09;20284724;23;20115;-93
2023/01/16 08:20:13;;;;;;;0.55;0.30;;;;;;;16.25;69.82;98357.00;20233778;29;20510;-89
2023/01/16 08:30:16;;;;;;;0.20;0.20;;;;;;;16.25;69.88;98332.84;20216016;29;20045;-91
2023/01/16 08:40:21;;;;;;;0.30;0.20;;;;;;;16.25;69.85;98311.38;20221049;29;20052;-87
2023/01/16 09:00:45;;;;;;;0.32;0.20;;;;;;;16.20;69.71;98241.31;20224867;29;20064;-93
2023/01/16 09:13:48;;;;;;;0.30;0.30;;;;;;;16.15;69.53;98212.38;20215216;29;20056;-94
2023/01/16 09:21:08;;;;;;;0.52;0.10;;;;;;;15.95;69.53;98150.44;20225633;29;20055;-94
2023/01/16 09:31:09;;;;;;;0.40;0.30;;;;;;;16.25;69.59;98163.72;20205109;29;20131;-95
2023/01/16 09:58:34;;;;;;;0.20;0.20;;;;;;;16.24;69.45;98111.91;20218585;29;20120;-94
2023/01/16 10:02:15;;;;;;;0.20;0.20;;;;;;;16.24;69.59;98087.72;20226885;29;20103;-94
2023/01/16 10:12:17;;;;;;;0.47;0.32;;;;;;;16.24;69.15;98070.78;20229271;29;20057;-94
2023/01/16 10:22:44;;;;;;;0.35;0.20;;;;;;;16.23;69.45;98043.13;20229309;29;20619;-95
2023/01/16 10:32:54;;;;;;;0.30;0.30;;;;;;;16.23;69.28;98023.50;20249511;29;20048;-94
2023/01/16 10:53:26;;;;;;;0.40;0.20;;;;;;;16.22;69.20;97957.41;20207515;29;20072;-93
2023/01/16 11:03:38;;;;;;;0.38;0.20;;;;;;;16.23;69.21;97932.22;20221059;29;20052;-90
2023/01/16 11:24:30;;;;;;;0.30;0.20;;;;;;;15.93;69.07;97825.16;20075145;29;20112;-92
2023/01/16 11:34:33;;;;;;;0.40;0.20;;;;;;;16.22;69.19;97856.25;20208525;29;20156;-91
2023/01/16 11:55:03;;;;;;;0.52;0.22;;;;;;;16.22;69.05;97794.53;20214449;29;20056;-90
2023/01/16 12:16:13;;;;;;;0.73;0.20;;;;;;;16.25;69.42;97734.22;20205300;29;20056;-92
2023/01/16 12:26:35;;;;;;;1.75;0.30;;;;;;;16.20;69.39;97699.97;20194168;29;20048;-91
2023/01/16 12:37:12;;;;;;;0.55;0.30;;;;;;;16.24;69.60;97684.25;20185491;29;20060;-95
2023/01/16 12:47:29;;;;;;;0.45;0.20;;;;;;;16.24;69.50;97676.22;20216395;29;20049;-95
2023/01/16 12:57:53;;;;;;;0.32;0.20;;;;;;;16.23;69.49;97643.19;20220377;29;20794;-91
2023/01/16 13:08:11;;;;;;;0.75;0.20;;;;;;;16.24;69.22;97625.22;20303479;23;20079;-91
2023/01/16 13:18:20;;;;;;;0.95;0.30;;;;;;;16.23;69.33;97612.81;20240902;29;20040;-93
2023/01/16 13:28:50;;;;;;;0.20;0.20;;;;;;;16.24;69.45;97603.72;20663378;23;20060;-92
2023/01/16 13:39:03;;;;;;;0.40;0.30;;;;;;;16.23;69.24;97580.63;20277896;23;20056;-94
2023/01/16 13:49:17;;;;;;;0.15;0.10;;;;;;;15.85;69.52;97514.94;20225479;29;20053;-91
2023/01/16 13:59:39;;;;;;;0.20;0.10;;;;;;;16.22;69.39;97563.69;20257661;29;20514;-91
2023/01/16 14:10:07;;;;;;;0.45;0.30;;;;;;;16.24;69.27;97542.00;20254646;29;20056;-90
2023/01/16 14:20:49;;;;;;;0.73;0.30;;;;;;;16.23;69.38;97543.03;20240018;29;20108;-90
2023/01/16 14:30:53;;;;;;;0.20;0.20;;;;;;;16.17;69.62;97511.66;20243407;29;20463;-91
2023/01/16 15:02:20;;;;;;;0.10;0.10;;;;;;;16.09;69.31;97478.66;20238184;29;20052;-91
2023/01/16 15:12:36;;;;;;;0.65;0.10;;;;;;;16.22;69.35;97482.34;20160949;29;20041;-91
2023/01/16 15:22:43;;;;;;;0.20;0.20;;;;;;;16.16;69.43;97464.41;20174262;29;20136;-95
2023/01/16 15:53:48;;;;;;;0.20;0.20;;;;;;;16.22;69.76;97455.50;20208578;29;20080;-89
2023/01/16 16:03:51;;;;;;;0.57;0.10;;;;;;;16.07;69.52;97443.16;20186666;29;20190;-87
2023/01/16 16:13:56;;;;;;;0.10;0.10;;;;;;;16.20;69.59;97446.84;20224678;29;20048;-87
2023/01/16 16:24:01;;;;;;;;;;;;;;;16.20;69.40;97442.31;20215526;29;20061;-87
2023/01/16 16:34:04;;;;;;;0.13;0.10;;;;;;;16.19;69.63;97434.44;20236141;29;20035;-94
2023/01/16 16:44:08;;;;;;;0.20;0.10;;;;;;;16.20;69.66;97431.56;20234465;29;20467;-89
2023/01/16 16:54:13;;;;;;;0.77;0.20;;;;;;;16.21;69.72;97405.53;20219704;29;20052;-90
2023/01/16 17:04:17;;;;;;;0.35;0.25;;;;;;;16.21;69.92;97400.19;20193361;29;20064;-87
2023/01/16 17:14:19;;;;;;;0.40;0.20;;;;;;;16.06;69.98;97370.91;20185988;29;20135;-88
2023/01/16 17:24:20;;;;;;;0.98;0.20;;;;;;;16.19;69.89;97378.09;20195088;29;20094;-88
2023/01/16 17:34:24;;;;;;;1.05;0.30;;;;;;;16.19;69.97;97378.94;20203397;29;20495;-89
2023/01/16 18:05:09;;;;;;;0.68;0.30;;;;;;;16.19;70.06;97356.63;20206915;29;20056;-86
2023/01/16 18:25:51;;;;;;;0.82;0.30;;;;;;;16.12;70.24;97342.41;20125966;29;20055;-87
2023/01/16 18:35:59;;;;;;;0.65;0.35;;;;;;;16.20;70.47;97355.59;20200228;29;20408;-93
2023/01/16 19:06:49;;;;;;;0.85;0.30;;;;;;;16.18;70.25;97334.34;20237504;29;20056;-89
2023/01/16 19:16:56;;;;;;;0.70;0.30;;;;;;;16.18;70.40;97328.97;20220120;29;20052;-89
2023/01/16 19:26:58;;;;;;;1.05;0.20;;;;;;;16.19;70.42;97327.94;20235755;29;20060;-89
2023/01/16 19:37:05;;;;;;;0.57;0.28;;;;;;;16.08;70.32;97305.28;20218643;29;20053;-89
2023/01/16 19:47:09;;;;;;;0.68;0.40;;;;;;;16.18;70.34;97304.00;20219368;29;20061;-89
2023/01/16 19:57:10;;;;;;;0.20;0.20;;;;;;;16.19;70.48;97311.84;20217898;29;20053;-89
2023/01/16 20:07:15;;;;;;;0.43;0.20;;;;;;;16.13;70.42;97301.97;20221196;29;20055;-89
2023/01/16 20:17:17;;;;;;;1.45;0.30;;;;;;;16.17;70.48;97302.34;20235000;29;20060;-89
2023/01/16 20:27:21;;;;;;;0.40;0.40;;;;;;;16.18;70.57;97304.00;20208994;29;20416;-88
2023/01/16 20:37:22;;;;;;;0.77;0.20;;;;;;;16.17;70.55;97308.56;20219359;29;20052;-90
2023/01/16 20:47:31;;;;;;;0.30;0.30;;;;;;;15.86;70.52;97266.31;20217797;29;20060;-90
2023/01/16 20:57:33;;;;;;;0.45;0.30;;;;;;;16.16;70.68;97339.09;20222541;29;20060;-89
2023/01/16 21:07:37;;;;;;;0.25;0.20;;;;;;;16.17;70.70;97356.84;20245977;29;20076;-89
2023/01/16 21:28:00;;;;;;;0.40;0.28;;;;;;;16.16;70.75;97370.47;20245492;29;20067;-89
2023/01/16 21:38:07;;;;;;;0.20;0.20;;;;;;;16.16;70.41;97382.03;20244062;29;20057;-89
2023/01/16 21:48:11;;;;;;;0.22;0.10;;;;;;;16.16;70.68;97390.09;20242954;29;20052;-89
2023/01/16 21:58:12;;;;;;;0.50;0.20;;;;;;;15.45;70.51;97287.84;20242126;29;20111;-88
2023/01/16 22:08:14;;;;;;;0.20;0.20;;;;;;;15.86;70.53;97354.81;20241850;29;20049;-89
2023/01/16 22:18:23;;;;;;;0.13;0.13;;;;;;;15.94;70.72;97384.16;20241940;29;20051;-89
2023/01/16 22:28:25;;;;;;;0.30;0.30;;;;;;;16.03;70.67;97415.09;20240561;29;20053;-89
2023/01/16 22:38:30;;;;;;;0.57;0.20;;;;;;;16.14;70.50;97442.31;20239135;29;20048;-89
2023/01/16 22:48:32;;;;;;;0.20;0.20;;;;;;;16.06;70.67;97441.50;20238426;29;20147;-89
2023/01/16 22:58:34;;;;;;;0.20;0.20;;;;;;;16.13;70.56;97443.34;20220421;29;20139;-89
2023/01/16 23:08:37;;;;;;;0.20;0.20;;;;;;;16.13;70.54;97462.13;20237409;29;20440;-89
2023/01/16 23:18:39;;;;;;;0.10;0.10;;;;;;;15.90;70.66;97447.28;20219852;29;20052;-89
2023/01/16 23:28:41;;;;;;;0.20;0.20;;;;;;;16.04;70.53;97467.72;20236106;29;20455;-89
2023/01/16 23:38:43;;;;;;;0.20;0.20;;;;;;;16.12;70.62;97500.72;20235451;29;20064;-89
2023/01/16 23:48:49;;;;;;;0.20;0.20;;;;;;;16.11;70.63;97507.94;20218081;29;20051;-89
2023/01/16 23:58:51;;;;;;;0.30;0.30;;;;;;;15.89;70.50;97486.72;20218462;29;20052;-89
